Time;durP1;ratioP1;P1;durP2;ratioP2;P2;SDS_P1;SDS_P2;PMS_P1;PMS_P2;Temp;Humidity;BMP_temperature;BMP_pressure;BME280_temperature;BME280_humidity;BME280_pressure;Samples;Min_cycle;Max_cycle;Signal;HPM_P1;HPM_P2
2022/10/20 00:01:26;;;;;;;;;;;9.10;99.90;;;;;;5073662;28;19923;-76
2022/10/20 00:03:52;;;;;;;;;;;9.10;99.90;;;;;;5091748;28;19913;-76
2022/10/20 00:06:28;;;;;;;;;;;9.10;99.90;;;;;;5092806;28;19912;-76
2022/10/20 00:08:54;;;;;;;;;;;9.10;99.90;;;;;;5070534;28;19920;-76
2022/10/20 00:11:21;;;;;;;;;;;9.10;99.90;;;;;;5073472;28;19916;-77
2022/10/20 00:13:47;;;;;;;;;;;9.10;99.90;;;;;;5089926;28;19919;-77
2022/10/20 00:16:13;;;;;;;;;;;9.00;99.90;;;;;;5092139;28;19945;-77
2022/10/20 00:18:39;;;;;;;;;;;9.10;99.90;;;;;;5091039;28;19923;-76
2022/10/20 00:21:06;;;;;;;;;;;9.10;99.90;;;;;;5093869;28;19916;-76
2022/10/20 00:23:31;;;;;;;;;;;9.10;99.90;;;;;;5089986;28;19919;-76
2022/10/20 00:26:02;;;;;;;;;;;9.00;99.90;;;;;;5093806;28;19916;-76
2022/10/20 00:28:28;;;;;;;;;;;9.00;99.90;;;;;;5067644;28;19919;-76
2022/10/20 00:30:54;;;;;;;;;;;9.00;99.90;;;;;;5093180;28;19916;-77
2022/10/20 00:33:20;;;;;;;;;;;9.00;99.90;;;;;;5087968;28;19920;-76
2022/10/20 00:35:45;;;;;;;;;;;9.00;99.90;;;;;;5091353;28;19973;-75
2022/10/20 00:38:11;;;;;;;;;;;9.00;99.90;;;;;;5088700;28;19967;-76
2022/10/20 00:40:37;;;;;;;;;;;8.90;99.90;;;;;;5097845;28;19915;-76
2022/10/20 00:43:02;;;;;;;;;;;8.90;99.90;;;;;;5090207;28;19912;-76
2022/10/20 00:45:28;;;;;;;;;;;8.90;99.90;;;;;;5068895;28;20304;-75
2022/10/20 00:48:05;;;;;;;;;;;9.00;99.90;;;;;;5092474;28;20204;-76
2022/10/20 00:50:33;;;;;;;;;;;8.90;99.90;;;;;;5094909;28;19912;-76
2022/10/20 00:53:00;;;;;;;;;;;9.00;99.90;;;;;;5095817;28;19912;-75
2022/10/20 00:55:27;;;;;;;;;;;8.90;99.90;;;;;;5088101;28;19913;-76
2022/10/20 00:57:54;;;;;;;;;;;8.90;99.90;;;;;;5093882;28;19916;-75
2022/10/20 01:00:20;;;;;;;;;;;8.90;99.90;;;;;;5094743;28;19919;-75
2022/10/20 01:02:46;;;;;;;;;;;8.90;99.90;;;;;;5082866;28;20376;-76
2022/10/20 01:05:12;;;;;;;;;;;8.90;99.90;;;;;;5090918;28;19919;-76
2022/10/20 01:07:38;;;;;;;;;;;8.80;99.90;;;;;;5090263;28;19912;-75
2022/10/20 01:10:05;;;;;;;;;;;8.80;99.90;;;;;;5074729;28;19916;-75
2022/10/20 01:12:33;;;;;;;;;;;8.80;99.90;;;;;;5094420;28;19912;-78
2022/10/20 01:15:08;;;;;;;;;;;8.80;99.90;;;;;;5084941;28;19920;-77
2022/10/20 01:17:39;;;;;;;;;;;8.80;99.90;;;;;;5072571;28;19923;-76
2022/10/20 01:20:14;;;;;;;;;;;8.90;99.90;;;;;;5089814;28;19958;-76
2022/10/20 01:22:40;;;;;;;;;;;8.80;99.90;;;;;;5096869;28;20331;-76
2022/10/20 01:25:09;;;;;;;;;;;8.80;99.90;;;;;;5085506;28;19995;-75
2022/10/20 01:27:35;;;;;;;;;;;8.70;99.90;;;;;;5096924;28;19916;-78
2022/10/20 01:30:10;;;;;;;;;;;8.70;99.90;;;;;;5091745;28;19912;-76
2022/10/20 01:32:54;;;;;;;;;;;8.70;99.90;;;;;;5086910;28;20072;-76
2022/10/20 01:35:27;;;;;;;;;;;8.70;99.90;;;;;;5094743;28;19920;-76
2022/10/20 01:37:53;;;;;;;;;;;8.70;99.90;;;;;;5087540;28;19920;-76
2022/10/20 01:40:26;;;;;;;;;;;8.70;99.90;;;;;;5091869;28;19928;-76
2022/10/20 01:42:53;;;;;;;;;;;8.70;99.90;;;;;;5083595;28;19926;-75
2022/10/20 01:45:20;;;;;;;;;;;8.60;99.90;;;;;;5090112;28;19912;-75
2022/10/20 01:47:46;;;;;;;;;;;8.60;99.90;;;;;;5096118;28;19912;-75
2022/10/20 01:50:13;;;;;;;;;;;8.60;99.90;;;;;;5060472;28;19960;-75
2022/10/20 01:52:39;;;;;;;;;;;8.60;99.90;;;;;;5092644;28;19965;-76
2022/10/20 01:55:15;;;;;;;;;;;8.60;99.90;;;;;;5068704;28;19920;-76
2022/10/20 01:58:16;;;;;;;;;;;8.50;99.90;;;;;;5076268;28;19916;-76
2022/10/20 02:00:43;;;;;;;;;;;8.50;99.90;;;;;;5027933;28;19913;-76
2022/10/20 02:03:12;;;;;;;;;;;8.60;99.90;;;;;;5076450;28;19919;-76
2022/10/20 02:05:47;;;;;;;;;;;8.60;99.90;;;;;;5075007;28;19912;-75
2022/10/20 02:08:19;;;;;;;;;;;8.50;99.90;;;;;;5084341;28;19915;-76
2022/10/20 02:10:46;;;;;;;;;;;8.60;99.90;;;;;;5086702;28;19916;-77
2022/10/20 02:13:12;;;;;;;;;;;8.50;99.90;;;;;;5085417;28;20003;-76
2022/10/20 02:15:40;;;;;;;;;;;8.50;99.90;;;;;;5076153;28;20318;-76
2022/10/20 02:18:07;;;;;;;;;;;8.60;99.90;;;;;;5084666;28;20222;-76
2022/10/20 02:20:33;;;;;;;;;;;8.60;99.90;;;;;;5094267;28;19919;-76
2022/10/20 02:22:59;;;;;;;;;;;8.60;99.90;;;;;;5092941;28;19912;-77
2022/10/20 02:25:26;;;;;;;;;;;8.50;99.90;;;;;;5090862;28;19916;-76
2022/10/20 02:27:53;;;;;;;;;;;8.50;99.90;;;;;;5088214;28;20261;-77
2022/10/20 02:30:19;;;;;;;;;;;8.60;99.90;;;;;;5095215;28;19912;-76
2022/10/20 02:32:48;;;;;;;;;;;8.60;99.90;;;;;;5074704;28;19920;-77
2022/10/20 02:35:16;;;;;;;;;;;8.60;99.90;;;;;;5092416;28;19939;-75
2022/10/20 02:37:42;;;;;;;;;;;8.60;99.90;;;;;;5086348;28;19924;-75
2022/10/20 02:40:07;;;;;;;;;;;8.60;99.90;;;;;;5094450;28;19919;-75
2022/10/20 02:42:33;;;;;;;;;;;8.60;99.90;;;;;;5095360;28;19957;-76
2022/10/20 02:44:58;;;;;;;;;;;8.60;99.90;;;;;;5093549;28;19961;-76
2022/10/20 02:47:24;;;;;;;;;;;8.60;99.90;;;;;;5085794;28;19920;-76
2022/10/20 02:49:50;;;;;;;;;;;8.60;99.90;;;;;;5075337;28;20323;-76
2022/10/20 02:52:15;;;;;;;;;;;8.60;99.90;;;;;;5093791;28;19916;-76
2022/10/20 02:54:41;;;;;;;;;;;8.60;99.90;;;;;;5075480;28;19908;-77
2022/10/20 02:57:06;;;;;;;;;;;8.60;99.90;;;;;;5093159;28;19935;-77
2022/10/20 02:59:32;;;;;;;;;;;8.50;99.90;;;;;;5093390;28;19920;-75
2022/10/20 03:01:58;;;;;;;;;;;8.60;99.90;;;;;;5081417;28;19909;-76
2022/10/20 03:04:23;;;;;;;;;;;8.50;99.90;;;;;;5076233;28;19916;-75
2022/10/20 03:06:49;;;;;;;;;;;8.50;99.90;;;;;;5073174;28;19919;-76
2022/10/20 03:09:14;;;;;;;;;;;8.50;99.90;;;;;;5059648;28;19920;-77
2022/10/20 03:11:40;;;;;;;;;;;8.50;99.90;;;;;;5082859;28;19915;-80
2022/10/20 03:14:05;;;;;;;;;;;8.50;99.90;;;;;;5092666;28;19912;-77
2022/10/20 03:16:31;;;;;;;;;;;8.50;99.90;;;;;;5090384;28;19919;-76
2022/10/20 03:18:57;;;;;;;;;;;8.50;99.90;;;;;;5089037;28;19923;-77
2022/10/20 03:21:22;;;;;;;;;;;8.50;99.90;;;;;;5088671;28;20325;-77
2022/10/20 03:23:48;;;;;;;;;;;8.50;99.90;;;;;;5089783;28;20287;-78
2022/10/20 03:26:13;;;;;;;;;;;8.50;99.90;;;;;;5091685;28;19959;-77
2022/10/20 03:28:39;;;;;;;;;;;8.50;99.90;;;;;;5068682;28;20352;-79
2022/10/20 03:31:05;;;;;;;;;;;8.50;99.90;;;;;;5091620;28;20003;-76
2022/10/20 03:33:30;;;;;;;;;;;8.50;99.90;;;;;;5093787;28;19962;-78
2022/10/20 03:35:56;;;;;;;;;;;8.40;99.90;;;;;;5089704;28;19926;-76
2022/10/20 03:38:22;;;;;;;;;;;8.40;99.90;;;;;;5081700;28;19920;-78
2022/10/20 03:40:48;;;;;;;;;;;8.50;99.90;;;;;;5088284;28;19966;-77
2022/10/20 03:43:16;;;;;;;;;;;8.40;99.90;;;;;;5094417;28;19963;-77
2022/10/20 03:45:42;;;;;;;;;;;8.40;99.90;;;;;;5068740;28;19955;-78
2022/10/20 03:48:07;;;;;;;;;;;8.40;99.90;;;;;;5082538;28;19969;-77
2022/10/20 03:50:33;;;;;;;;;;;8.40;99.90;;;;;;5091085;28;20164;-77
2022/10/20 03:52:59;;;;;;;;;;;8.40;99.90;;;;;;5094022;28;19923;-77
2022/10/20 03:55:24;;;;;;;;;;;8.40;99.90;;;;;;5073928;28;19923;-76
2022/10/20 03:57:50;;;;;;;;;;;8.40;99.90;;;;;;5094164;28;19920;-76
2022/10/20 04:00:15;;;;;;;;;;;8.40;99.90;;;;;;5092771;28;21479;-76
2022/10/20 04:02:42;;;;;;;;;;;8.40;99.90;;;;;;5087070;28;20227;-77
2022/10/20 04:05:09;;;;;;;;;;;8.40;99.90;;;;;;5089364;28;20447;-77
2022/10/20 04:07:35;;;;;;;;;;;8.40;99.90;;;;;;5075206;28;19915;-76
2022/10/20 04:10:01;;;;;;;;;;;8.40;99.90;;;;;;5090406;28;20058;-77
2022/10/20 04:12:27;;;;;;;;;;;8.40;99.90;;;;;;5095769;28;19912;-76
2022/10/20 04:14:52;;;;;;;;;;;8.40;99.90;;;;;;5093753;28;19918;-76
2022/10/20 04:17:18;;;;;;;;;;;8.40;99.90;;;;;;5089916;28;20299;-76
2022/10/20 04:19:44;;;;;;;;;;;8.40;99.90;;;;;;5094610;28;20006;-76
2022/10/20 04:22:09;;;;;;;;;;;8.40;99.90;;;;;;5097808;28;19963;-77
2022/10/20 04:24:35;;;;;;;;;;;8.40;99.90;;;;;;5097184;28;20017;-76
2022/10/20 04:27:01;;;;;;;;;;;8.50;99.90;;;;;;5076385;28;19915;-76
2022/10/20 04:29:26;;;;;;;;;;;8.50;99.90;;;;;;5076279;28;19950;-75
2022/10/20 04:31:52;;;;;;;;;;;8.50;99.90;;;;;;5093267;28;19912;-76
2022/10/20 04:34:18;;;;;;;;;;;8.50;99.90;;;;;;5093716;28;20218;-77
2022/10/20 04:36:43;;;;;;;;;;;8.50;99.90;;;;;;5075010;28;19916;-76
2022/10/20 04:39:09;;;;;;;;;;;8.50;99.90;;;;;;5069980;28;19928;-75
2022/10/20 04:41:34;;;;;;;;;;;8.60;99.90;;;;;;5087213;28;19963;-76
2022/10/20 04:44:00;;;;;;;;;;;8.60;99.90;;;;;;5094042;28;19934;-76
2022/10/20 04:46:26;;;;;;;;;;;8.60;99.90;;;;;;5091073;28;20211;-77
2022/10/20 04:48:52;;;;;;;;;;;8.60;99.90;;;;;;5093258;28;20003;-76
2022/10/20 04:51:17;;;;;;;;;;;8.60;99.90;;;;;;5093103;28;20006;-76
2022/10/20 04:53:43;;;;;;;;;;;8.50;99.90;;;;;;5092584;28;20266;-76
2022/10/20 04:56:11;;;;;;;;;;;8.60;99.90;;;;;;5101452;28;19915;-75
2022/10/20 04:58:36;;;;;;;;;;;8.50;99.90;;;;;;5078638;28;19916;-76
2022/10/20 05:01:07;;;;;;;;;;;8.60;99.90;;;;;;5085395;28;19920;-77
2022/10/20 05:03:33;;;;;;;;;;;8.60;99.90;;;;;;5100505;28;20275;-76
2022/10/20 05:06:12;;;;;;;;;;;8.60;99.90;;;;;;5102169;28;19956;-75
2022/10/20 05:08:38;;;;;;;;;;;8.60;99.90;;;;;;5076525;28;19959;-76
2022/10/20 05:11:04;;;;;;;;;;;8.60;99.90;;;;;;5106042;28;19945;-76
2022/10/20 05:13:30;;;;;;;;;;;8.60;99.90;;;;;;5087256;28;19912;-77
2022/10/20 05:15:56;;;;;;;;;;;8.60;99.90;;;;;;5104981;28;19950;-76
2022/10/20 05:18:21;;;;;;;;;;;8.70;99.90;;;;;;5102361;28;19920;-77
2022/10/20 05:20:47;;;;;;;;;;;8.70;99.90;;;;;;5104959;28;19912;-76
2022/10/20 05:23:13;;;;;;;;;;;8.70;99.90;;;;;;5101592;28;20280;-78
2022/10/20 05:25:38;;;;;;;;;;;8.70;99.90;;;;;;5105560;28;20010;-76
2022/10/20 05:28:05;;;;;;;;;;;8.70;99.90;;;;;;5102563;28;20312;-76
2022/10/20 05:30:32;;;;;;;;;;;8.70;99.90;;;;;;5082446;28;19916;-76
2022/10/20 05:32:58;;;;;;;;;;;8.70;99.90;;;;;;5087751;28;19922;-76
2022/10/20 05:35:24;;;;;;;;;;;8.70;99.90;;;;;;5089880;28;20281;-75
2022/10/20 05:37:49;;;;;;;;;;;8.70;99.90;;;;;;5104813;28;19927;-75
2022/10/20 05:40:15;;;;;;;;;;;8.70;99.90;;;;;;5105868;28;19920;-75
2022/10/20 05:42:41;;;;;;;;;;;8.70;99.90;;;;;;5102749;28;19912;-75
2022/10/20 05:45:07;;;;;;;;;;;8.70;99.90;;;;;;5102755;28;19913;-76
2022/10/20 05:47:33;;;;;;;;;;;8.70;99.90;;;;;;5094885;28;20223;-76
2022/10/20 05:49:59;;;;;;;;;;;8.80;99.90;;;;;;5091527;28;20226;-76
2022/10/20 05:52:24;;;;;;;;;;;8.80;99.90;;;;;;5095356;28;19916;-76
2022/10/20 05:54:50;;;;;;;;;;;8.80;99.90;;;;;;5082842;28;19913;-76
2022/10/20 05:57:16;;;;;;;;;;;8.80;99.90;;;;;;5069032;28;19931;-76
2022/10/20 05:59:41;;;;;;;;;;;8.80;99.90;;;;;;5077282;28;20281;-75
2022/10/20 06:02:10;;;;;;;;;;;8.80;99.90;;;;;;5062693;28;19978;-75
2022/10/20 06:04:36;;;;;;;;;;;8.90;99.90;;;;;;5090691;28;19919;-75
2022/10/20 06:07:02;;;;;;;;;;;8.80;99.90;;;;;;5091286;28;19912;-76
2022/10/20 06:09:27;;;;;;;;;;;8.80;99.90;;;;;;5092958;28;19912;-76
2022/10/20 06:11:53;;;;;;;;;;;8.90;99.90;;;;;;5088588;28;19912;-75
2022/10/20 06:14:21;;;;;;;;;;;8.90;99.90;;;;;;5097514;28;20002;-75
2022/10/20 06:16:49;;;;;;;;;;;8.90;99.90;;;;;;5096505;28;20330;-74
2022/10/20 06:19:14;;;;;;;;;;;8.90;99.90;;;;;;5104366;28;20001;-76
2022/10/20 06:21:40;;;;;;;;;;;8.90;99.90;;;;;;5081253;28;20362;-77
2022/10/20 06:24:06;;;;;;;;;;;9.00;99.90;;;;;;5094873;28;19912;-76
2022/10/20 06:26:32;;;;;;;;;;;9.00;99.90;;;;;;5100062;28;19934;-76
2022/10/20 06:28:58;;;;;;;;;;;9.00;99.90;;;;;;5100053;28;19912;-76
2022/10/20 06:31:25;;;;;;;;;;;9.10;99.90;;;;;;5071822;28;19920;-75
2022/10/20 06:33:52;;;;;;;;;;;9.10;99.90;;;;;;5096948;28;20219;-75
2022/10/20 06:36:18;;;;;;;;;;;9.10;99.90;;;;;;5094248;28;20034;-76
2022/10/20 06:38:43;;;;;;;;;;;9.10;99.90;;;;;;5084690;28;19920;-76
2022/10/20 06:41:12;;;;;;;;;;;9.10;99.90;;;;;;5068376;28;20322;-76
2022/10/20 06:43:38;;;;;;;;;;;9.20;99.90;;;;;;5095429;28;19912;-76
2022/10/20 06:46:04;;;;;;;;;;;9.10;99.90;;;;;;5081348;28;19916;-75
2022/10/20 06:48:30;;;;;;;;;;;9.20;99.90;;;;;;5091011;28;20315;-75
2022/10/20 06:50:56;;;;;;;;;;;9.20;99.90;;;;;;5089079;28;19924;-75
2022/10/20 06:53:22;;;;;;;;;;;9.20;99.90;;;;;;5087080;28;19919;-75
2022/10/20 06:55:59;;;;;;;;;;;9.20;99.90;;;;;;5093137;28;19912;-75
2022/10/20 06:58:25;;;;;;;;;;;9.20;99.90;;;;;;5091647;28;19928;-75
2022/10/20 07:01:22;;;;;;;;;;;9.30;99.90;;;;;;5093035;28;19927;-76
2022/10/20 07:03:47;;;;;;;;;;;9.30;99.90;;;;;;4984499;28;19913;-76
2022/10/20 07:06:15;;;;;;;;;;;9.30;99.90;;;;;;4985577;28;20225;-76
2022/10/20 07:08:40;;;;;;;;;;;9.40;99.90;;;;;;4990480;28;19913;-75
2022/10/20 07:11:07;;;;;;;;;;;9.40;99.90;;;;;;4992828;28;19920;-75
2022/10/20 07:13:33;;;;;;;;;;;9.40;99.90;;;;;;4993128;28;19918;-74
2022/10/20 07:15:59;;;;;;;;;;;9.40;99.90;;;;;;4972141;28;20273;-75
2022/10/20 07:18:26;;;;;;;;;;;9.50;99.90;;;;;;4990112;28;19926;-76
2022/10/20 07:20:54;;;;;;;;;;;9.60;99.90;;;;;;4988189;28;19914;-75
2022/10/20 07:23:20;;;;;;;;;;;9.60;99.90;;;;;;4985531;28;20198;-77
2022/10/20 07:25:45;;;;;;;;;;;9.60;99.90;;;;;;4991507;28;19921;-75
2022/10/20 07:28:11;;;;;;;;;;;9.70;99.90;;;;;;4984858;28;19914;-75
2022/10/20 07:30:40;;;;;;;;;;;9.60;99.90;;;;;;4990179;28;19921;-76
2022/10/20 07:33:06;;;;;;;;;;;9.60;99.90;;;;;;4988976;28;19932;-76
2022/10/20 07:35:32;;;;;;;;;;;9.70;99.90;;;;;;4982649;28;19921;-76
2022/10/20 07:37:58;;;;;;;;;;;9.70;99.90;;;;;;4987172;28;19922;-78
2022/10/20 07:40:23;;;;;;;;;;;9.70;99.90;;;;;;5045471;28;20126;-75
2022/10/20 07:42:49;;;;;;;;;;;9.80;99.90;;;;;;5089370;28;20390;-76
2022/10/20 07:45:16;;;;;;;;;;;9.80;99.90;;;;;;5080102;28;20413;-76
2022/10/20 07:47:42;;;;;;;;;;;9.90;99.90;;;;;;5078201;28;19913;-75
2022/10/20 07:50:08;;;;;;;;;;;9.90;99.90;;;;;;5104025;28;19911;-75
2022/10/20 07:52:34;;;;;;;;;;;10.00;99.90;;;;;;5067897;28;20226;-76
2022/10/20 07:54:59;;;;;;;;;;;10.00;99.90;;;;;;5101788;28;19923;-76
2022/10/20 07:57:25;;;;;;;;;;;10.00;99.90;;;;;;5100487;28;19933;-77
2022/10/20 07:59:51;;;;;;;;;;;10.10;99.90;;;;;;5113714;28;19916;-76
2022/10/20 08:02:16;;;;;;;;;;;10.10;99.90;;;;;;5111495;28;19912;-75
2022/10/20 08:04:43;;;;;;;;;;;10.10;99.90;;;;;;5099041;28;19912;-76
2022/10/20 08:07:11;;;;;;;;;;;10.20;99.90;;;;;;5093842;28;19912;-76
2022/10/20 08:09:37;;;;;;;;;;;10.20;99.90;;;;;;5083436;28;20220;-76
2022/10/20 08:12:03;;;;;;;;;;;10.30;99.90;;;;;;5094439;28;19920;-76
2022/10/20 08:14:34;;;;;;;;;;;10.30;99.90;;;;;;5086962;28;19912;-75
2022/10/20 08:17:00;;;;;;;;;;;10.40;99.90;;;;;;5098980;28;20044;-76
2022/10/20 08:19:26;;;;;;;;;;;10.40;99.90;;;;;;5092628;28;19916;-78
2022/10/20 08:21:51;;;;;;;;;;;10.40;99.90;;;;;;5100190;28;19922;-77
2022/10/20 08:24:17;;;;;;;;;;;10.50;99.90;;;;;;5101727;28;19908;-75
2022/10/20 08:26:43;;;;;;;;;;;10.50;99.90;;;;;;5072244;28;19920;-76
2022/10/20 08:29:09;;;;;;;;;;;10.60;99.90;;;;;;5095494;28;19951;-76
2022/10/20 08:31:35;;;;;;;;;;;10.70;99.90;;;;;;5099570;28;19959;-76
2022/10/20 08:34:00;;;;;;;;;;;10.70;99.90;;;;;;5091433;28;19924;-76
2022/10/20 08:36:29;;;;;;;;;;;10.80;99.90;;;;;;5071168;28;19920;-76
2022/10/20 08:38:55;;;;;;;;;;;10.90;99.90;;;;;;5095292;28;19971;-75
2022/10/20 08:41:23;;;;;;;;;;;11.00;99.90;;;;;;5071720;28;19974;-76
2022/10/20 08:43:50;;;;;;;;;;;11.00;99.90;;;;;;5092924;28;19949;-75
2022/10/20 08:46:17;;;;;;;;;;;11.10;99.90;;;;;;5081362;28;19955;-75
2022/10/20 08:48:43;;;;;;;;;;;11.10;99.90;;;;;;5096924;28;19934;-76
2022/10/20 08:51:23;;;;;;;;;;;11.20;99.90;;;;;;5105426;28;20520;-75
2022/10/20 08:53:50;;;;;;;;;;;11.30;99.90;;;;;;5092323;28;19912;-75
2022/10/20 08:56:18;;;;;;;;;;;11.30;99.90;;;;;;5091962;28;20222;-75
2022/10/20 08:58:45;;;;;;;;;;;11.40;99.90;;;;;;5074621;28;20035;-76
2022/10/20 09:01:16;;;;;;;;;;;11.40;99.90;;;;;;5076772;28;19920;-76
2022/10/20 09:03:42;;;;;;;;;;;11.50;99.90;;;;;;5084953;28;19994;-77
2022/10/20 09:06:12;;;;;;;;;;;11.50;99.90;;;;;;5106804;28;20011;-75
2022/10/20 09:08:38;;;;;;;;;;;11.60;99.90;;;;;;5100840;28;19938;-75
2022/10/20 09:11:07;;;;;;;;;;;11.70;99.90;;;;;;5089001;28;19916;-76
2022/10/20 09:13:32;;;;;;;;;;;11.70;99.90;;;;;;5095878;28;20299;-76
2022/10/20 09:16:18;;;;;;;;;;;11.80;99.90;;;;;;5099694;28;19912;-76
2022/10/20 09:18:44;;;;;;;;;;;11.80;99.90;;;;;;5104363;28;19920;-76
2022/10/20 09:21:20;;;;;;;;;;;11.90;99.90;;;;;;5091317;28;19941;-75
2022/10/20 09:23:49;;;;;;;;;;;12.00;99.90;;;;;;5091279;28;19991;-75
2022/10/20 09:26:17;;;;;;;;;;;12.00;99.90;;;;;;5092764;28;20208;-75
2022/10/20 09:28:46;;;;;;;;;;;12.00;99.90;;;;;;5072689;28;19998;-77
2022/10/20 09:31:23;;;;;;;;;;;12.00;99.90;;;;;;5099740;28;19912;-76
2022/10/20 09:33:49;;;;;;;;;;;12.00;99.90;;;;;;5096121;28;19939;-76
2022/10/20 09:36:19;;;;;;;;;;;12.10;99.90;;;;;;5096520;28;19924;-75
2022/10/20 09:38:48;;;;;;;;;;;12.10;99.90;;;;;;5098923;28;19924;-76
2022/10/20 09:41:19;;;;;;;;;;;12.10;99.90;;;;;;5099690;28;19916;-76
2022/10/20 09:43:50;;;;;;;;;;;12.10;99.90;;;;;;5094822;28;19959;-76
2022/10/20 09:46:31;;;;;;;;;;;12.10;99.90;;;;;;5095036;28;19912;-76
2022/10/20 09:48:57;;;;;;;;;;;12.10;99.90;;;;;;5103636;28;19947;-75
2022/10/20 09:51:23;;;;;;;;;;;12.20;99.90;;;;;;5092463;28;20314;-75
2022/10/20 09:53:49;;;;;;;;;;;12.20;99.90;;;;;;5097278;28;19915;-76
2022/10/20 09:56:24;;;;;;;;;;;12.20;99.90;;;;;;5100785;28;20006;-76
2022/10/20 09:58:49;;;;;;;;;;;12.20;99.90;;;;;;5093681;28;19920;-77
2022/10/20 10:01:16;;;;;;;;;;;12.20;99.90;;;;;;5102529;28;19973;-75
2022/10/20 10:03:50;;;;;;;;;;;12.20;99.90;;;;;;5074901;28;19916;-76
2022/10/20 10:06:42;;;;;;;;;;;12.20;99.90;;;;;;5092563;28;19920;-75
2022/10/20 10:09:43;;;;;;;;;;;12.20;99.90;;;;;;5088573;28;19912;-75
2022/10/20 10:12:11;;;;;;;;;;;12.30;99.90;;;;;;5021468;28;19913;-76
2022/10/20 10:14:47;;;;;;;;;;;12.30;99.90;;;;;;5025273;28;19914;-75
2022/10/20 10:17:27;;;;;;;;;;;12.40;99.90;;;;;;5020195;28;20009;-76
2022/10/20 10:19:52;;;;;;;;;;;12.40;99.90;;;;;;5023221;28;20084;-75
2022/10/20 10:22:18;;;;;;;;;;;12.40;99.90;;;;;;5009634;28;20405;-76
2022/10/20 10:24:46;;;;;;;;;;;12.60;99.90;;;;;;5009402;28;19917;-76
2022/10/20 10:27:20;;;;;;;;;;;12.50;99.90;;;;;;5026006;28;19918;-76
2022/10/20 10:29:46;;;;;;;;;;;12.50;99.90;;;;;;5009615;28;20268;-75
2022/10/20 10:32:16;;;;;;;;;;;12.50;99.90;;;;;;5022481;28;19920;-75
2022/10/20 10:34:49;;;;;;;;;;;12.60;99.90;;;;;;5022847;28;20253;-78
2022/10/20 10:37:16;;;;;;;;;;;12.60;99.90;;;;;;5019971;28;19922;-75
2022/10/20 10:39:42;;;;;;;;;;;12.60;99.90;;;;;;5021974;28;19959;-76
2022/10/20 10:42:14;;;;;;;;;;;12.70;99.90;;;;;;5005331;28;20340;-77
2022/10/20 10:44:54;;;;;;;;;;;12.70;99.90;;;;;;5027438;28;20272;-76
2022/10/20 10:47:38;;;;;;;;;;;12.70;99.90;;;;;;5091656;28;19923;-76
2022/10/20 10:50:19;;;;;;;;;;;12.70;99.90;;;;;;5101446;28;19925;-76
2022/10/20 10:52:58;;;;;;;;;;;12.80;99.90;;;;;;5091426;28;19921;-75
2022/10/20 10:55:37;;;;;;;;;;;12.80;99.90;;;;;;5086776;28;19995;-77
2022/10/20 10:58:13;;;;;;;;;;;12.90;99.90;;;;;;5086640;28;19923;-76
2022/10/20 11:00:45;;;;;;;;;;;12.90;99.90;;;;;;5062084;28;19912;-77
2022/10/20 11:03:29;;;;;;;;;;;12.90;99.90;;;;;;5098346;28;19969;-78
2022/10/20 11:06:24;;;;;;;;;;;12.90;99.90;;;;;;5085495;28;19916;-76
2022/10/20 11:09:09;;;;;;;;;;;12.90;99.90;;;;;;5091457;28;19920;-76
2022/10/20 11:11:37;;;;;;;;;;;12.90;99.90;;;;;;5100804;28;19926;-76
2022/10/20 11:14:22;;;;;;;;;;;12.90;99.90;;;;;;5085151;28;19920;-75
2022/10/20 11:17:00;;;;;;;;;;;12.90;99.90;;;;;;5086397;28;19911;-75
2022/10/20 11:19:28;;;;;;;;;;;12.90;99.90;;;;;;5090938;28;19970;-76
2022/10/20 11:21:57;;;;;;;;;;;13.00;99.90;;;;;;5090104;28;19916;-76
2022/10/20 11:24:34;;;;;;;;;;;12.90;99.90;;;;;;5090114;28;20286;-75
2022/10/20 11:27:06;;;;;;;;;;;13.00;99.90;;;;;;5072598;28;19915;-76
2022/10/20 11:29:37;;;;;;;;;;;13.00;99.90;;;;;;5079873;28;20003;-77
2022/10/20 11:32:29;;;;;;;;;;;13.00;99.90;;;;;;5090905;28;20368;-75
2022/10/20 11:34:58;;;;;;;;;;;13.00;99.90;;;;;;5065275;28;19935;-76
2022/10/20 11:37:25;;;;;;;;;;;13.00;99.90;;;;;;5085032;28;19977;-77
2022/10/20 11:39:56;;;;;;;;;;;13.00;99.90;;;;;;5071885;28;20018;-78
2022/10/20 11:42:31;;;;;;;;;;;13.00;99.90;;;;;;5089270;28;19969;-79
2022/10/20 11:44:59;;;;;;;;;;;13.00;99.90;;;;;;5093038;28;19973;-76
2022/10/20 11:47:35;;;;;;;;;;;13.00;99.90;;;;;;5092034;28;19920;-76
2022/10/20 11:50:18;;;;;;;;;;;12.90;99.90;;;;;;5083093;28;20204;-76
2022/10/20 11:52:54;;;;;;;;;;;13.00;99.90;;;;;;5091540;28;19912;-75
2022/10/20 11:55:27;;;;;;;;;;;12.90;99.90;;;;;;5074720;28;19922;-78
2022/10/20 11:58:11;;;;;;;;;;;12.90;99.90;;;;;;5087508;28;19923;-77
2022/10/20 12:00:42;;;;;;;;;;;12.90;99.90;;;;;;5097793;28;20302;-80
2022/10/20 12:03:08;;;;;;;;;;;13.00;99.90;;;;;;5088716;28;19917;-77
2022/10/20 12:05:37;;;;;;;;;;;12.90;99.90;;;;;;5076820;28;19965;-78
2022/10/20 12:08:21;;;;;;;;;;;12.90;99.90;;;;;;5093303;28;20234;-77
2022/10/20 12:10:50;;;;;;;;;;;12.90;99.90;;;;;;5086533;28;19918;-73
2022/10/20 12:13:25;;;;;;;;;;;12.90;99.90;;;;;;5094981;28;20318;-75
2022/10/20 12:15:51;;;;;;;;;;;12.90;99.90;;;;;;5087896;28;19923;-76
2022/10/20 12:18:21;;;;;;;;;;;13.00;99.90;;;;;;5094240;28;20000;-78
2022/10/20 12:20:48;;;;;;;;;;;13.00;99.90;;;;;;5088989;28;19912;-78
2022/10/20 12:23:32;;;;;;;;;;;13.00;99.90;;;;;;5090112;28;19919;-78
2022/10/20 12:25:58;;;;;;;;;;;13.10;99.90;;;;;;5085872;28;19924;-76
2022/10/20 12:28:24;;;;;;;;;;;13.10;99.90;;;;;;5067774;28;19912;-81
2022/10/20 12:30:53;;;;;;;;;;;13.10;99.90;;;;;;5092702;28;20010;-77
2022/10/20 12:33:33;;;;;;;;;;;13.10;99.90;;;;;;5068934;28;20006;-79
2022/10/20 12:36:13;;;;;;;;;;;13.10;99.90;;;;;;5093778;28;19924;-77
2022/10/20 12:38:40;;;;;;;;;;;13.20;99.90;;;;;;5094041;28;19924;-84
2022/10/20 12:41:07;;;;;;;;;;;13.20;99.90;;;;;;5082747;28;20321;-79
2022/10/20 12:43:44;;;;;;;;;;;13.30;99.90;;;;;;5098131;28;20290;-83
2022/10/20 12:46:11;;;;;;;;;;;13.30;99.90;;;;;;5099205;28;19912;-76
2022/10/20 12:48:42;;;;;;;;;;;13.30;99.90;;;;;;5080851;28;19924;-81
2022/10/20 12:51:22;;;;;;;;;;;13.30;99.90;;;;;;5100319;28;19962;-84
2022/10/20 12:53:56;;;;;;;;;;;13.40;99.90;;;;;;5085069;28;20307;-83
2022/10/20 12:56:22;;;;;;;;;;;13.40;99.90;;;;;;5081931;28;19919;-78
2022/10/20 12:59:08;;;;;;;;;;;13.40;99.90;;;;;;5097583;28;20019;-76
2022/10/20 13:02:03;;;;;;;;;;;13.40;99.90;;;;;;5100930;28;19912;-76
2022/10/20 13:04:47;;;;;;;;;;;13.50;99.90;;;;;;5021267;28;20368;-74
2022/10/20 13:07:13;;;;;;;;;;;13.50;99.90;;;;;;5080075;28;19912;-78
2022/10/20 13:09:53;;;;;;;;;;;13.50;99.90;;;;;;5094994;28;19935;-83
2022/10/20 13:12:25;;;;;;;;;;;13.60;99.90;;;;;;5101721;28;19912;-89
2022/10/20 13:14:54;;;;;;;;;;;13.60;99.90;;;;;;5089847;28;19911;-82
2022/10/20 13:17:49;;;;;;;;;;;13.70;99.90;;;;;;5092164;28;19916;-76
2022/10/20 13:20:21;;;;;;;;;;;13.70;99.90;;;;;;5081462;28;20007;-75
2022/10/20 13:22:51;;;;;;;;;;;13.90;99.90;;;;;;5097986;28;19912;-78
2022/10/20 13:25:35;;;;;;;;;;;13.90;99.90;;;;;;5102165;28;20299;-78
2022/10/20 13:28:04;;;;;;;;;;;13.90;99.90;;;;;;5088683;28;20010;-77
2022/10/20 13:30:30;;;;;;;;;;;13.90;99.90;;;;;;5098435;28;19920;-77
2022/10/20 13:33:05;;;;;;;;;;;13.90;99.90;;;;;;5096135;28;19927;-74
2022/10/20 13:35:52;;;;;;;;;;;14.00;99.90;;;;;;5109097;28;20002;-75
2022/10/20 13:38:34;;;;;;;;;;;13.90;99.90;;;;;;5108321;28;19923;-76
2022/10/20 13:41:10;;;;;;;;;;;14.00;99.90;;;;;;5106263;28;20200;-78
2022/10/20 13:44:02;;;;;;;;;;;14.00;99.90;;;;;;5105826;28;19967;-75
2022/10/20 13:46:46;;;;;;;;;;;14.00;99.90;;;;;;5094710;28;19912;-76
2022/10/20 13:49:12;;;;;;;;;;;14.10;99.90;;;;;;5109404;28;19911;-76
2022/10/20 13:51:46;;;;;;;;;;;14.10;99.90;;;;;;5106803;28;19994;-77
2022/10/20 13:54:32;;;;;;;;;;;14.10;99.90;;;;;;5103789;28;19918;-76
2022/10/20 13:56:58;;;;;;;;;;;14.10;99.90;;;;;;5101264;28;19912;-76
2022/10/20 13:59:25;;;;;;;;;;;14.10;99.90;;;;;;5106585;28;19951;-76
2022/10/20 14:01:55;;;;;;;;;;;14.10;99.90;;;;;;5104519;28;20001;-76
2022/10/20 14:04:25;;;;;;;;;;;14.20;99.90;;;;;;5102622;28;19918;-76
2022/10/20 14:06:51;;;;;;;;;;;14.20;99.90;;;;;;5104670;28;19912;-80
2022/10/20 14:09:18;;;;;;;;;;;14.20;99.90;;;;;;5105408;28;19912;-75
2022/10/20 14:11:45;;;;;;;;;;;14.30;99.90;;;;;;5107636;28;19922;-80
2022/10/20 14:14:13;;;;;;;;;;;14.30;99.90;;;;;;5084255;28;20271;-75
2022/10/20 14:16:38;;;;;;;;;;;14.40;99.90;;;;;;5105814;28;19912;-75
2022/10/20 14:19:10;;;;;;;;;;;14.40;99.90;;;;;;5099444;28;19927;-76
2022/10/20 14:21:39;;;;;;;;;;;14.50;99.90;;;;;;5097195;28;20327;-76
2022/10/20 14:24:05;;;;;;;;;;;14.60;99.90;;;;;;5105936;28;19920;-76
2022/10/20 14:26:32;;;;;;;;;;;14.60;99.90;;;;;;5107868;28;19999;-78
2022/10/20 14:28:57;;;;;;;;;;;14.80;99.90;;;;;;5090052;28;21658;-77
2022/10/20 14:31:23;;;;;;;;;;;14.90;99.90;;;;;;5081279;28;20003;-78
2022/10/20 14:33:50;;;;;;;;;;;14.90;99.90;;;;;;5108129;28;20326;-75
2022/10/20 14:36:21;;;;;;;;;;;15.00;99.90;;;;;;5089702;28;19919;-77